createdAt,value
2019-02-20T00:00:44.388Z,48.40
2019-02-20T00:01:44.395Z,52.10
2019-02-20T00:02:44.317Z,48.80
2019-02-20T00:03:44.329Z,57.90
2019-02-20T00:04:44.309Z,49.10
2019-02-20T00:05:44.303Z,55.80
2019-02-20T00:06:44.298Z,57.70
2019-02-20T00:07:44.284Z,52.30
2019-02-20T00:08:44.316Z,50.10
2019-02-20T00:09:44.242Z,51.90
2019-02-20T00:10:44.238Z,50.80
2019-02-20T00:11:44.235Z,55.40
2019-02-20T00:12:44.216Z,52.90
2019-02-20T00:13:44.219Z,48.70
2019-02-20T00:14:44.185Z,50.70
2019-02-20T00:15:44.243Z,51.00
2019-02-20T00:16:44.210Z,56.40
2019-02-20T00:17:44.500Z,51.70
2019-02-20T00:18:44.155Z,48.10
2019-02-20T00:19:44.177Z,51.70
2019-02-20T00:20:44.119Z,56.00
2019-02-20T00:21:44.120Z,53.50
2019-02-20T00:22:44.263Z,58.80
2019-02-20T00:23:44.092Z,61.10
2019-02-20T00:24:44.082Z,53.60
2019-02-20T00:25:44.064Z,71.80
2019-02-20T00:26:44.060Z,61.00
2019-02-20T00:27:44.061Z,61.20
2019-02-20T00:28:44.031Z,70.30
2019-02-20T00:29:44.092Z,63.00
2019-02-20T00:30:44.027Z,61.40
2019-02-20T00:31:44.012Z,66.00
2019-02-20T00:32:44.031Z,61.60
2019-02-20T00:33:44.011Z,54.10
2019-02-20T00:34:43.981Z,63.70
2019-02-20T00:35:43.955Z,51.80
2019-02-20T00:36:43.960Z,59.80
2019-02-20T00:37:43.953Z,58.40
2019-02-20T00:38:43.942Z,59.00
2019-02-20T00:39:43.938Z,54.10
2019-02-20T00:40:43.904Z,55.10
2019-02-20T00:41:43.897Z,63.00
2019-02-20T00:42:43.887Z,54.60
2019-02-20T00:43:43.877Z,59.20
2019-02-20T00:44:43.868Z,55.60
2019-02-20T00:45:43.852Z,60.90
2019-02-20T00:46:43.855Z,62.50
2019-02-20T00:47:43.832Z,55.70
2019-02-20T00:48:43.819Z,60.00
2019-02-20T00:49:43.807Z,67.80
2019-02-20T00:50:43.799Z,66.20
2019-02-20T00:51:43.786Z,68.30
2019-02-20T00:52:49.875Z,70.40
2019-02-20T00:53:44.756Z,78.90
2019-02-20T00:54:43.809Z,64.90
2019-02-20T00:55:43.749Z,66.00
2019-02-20T00:56:43.775Z,61.50
2019-02-20T00:57:43.717Z,63.00
2019-02-20T00:58:43.717Z,65.10
2019-02-20T00:59:43.728Z,57.70
2019-02-20T01:00:43.687Z,57.20
2019-02-20T01:01:43.685Z,66.10
2019-02-20T01:02:43.677Z,55.70
2019-02-20T01:03:43.667Z,50.80
2019-02-20T01:04:43.656Z,47.00
2019-02-20T01:05:43.747Z,52.70
2019-02-20T01:06:45.300Z,56.60
2019-02-20T01:07:43.624Z,55.90
2019-02-20T01:08:43.608Z,56.70
2019-02-20T01:09:43.591Z,66.00
2019-02-20T01:10:43.582Z,59.70
2019-02-20T01:11:43.560Z,52.00
2019-02-20T01:12:43.570Z,54.90
2019-02-20T01:13:43.560Z,60.90
2019-02-20T01:14:43.541Z,58.10
2019-02-20T01:15:43.526Z,54.20
2019-02-20T01:16:43.514Z,53.70
2019-02-20T01:17:43.684Z,57.80
2019-02-20T01:18:43.487Z,56.90
2019-02-20T01:19:43.477Z,57.20
2019-02-20T01:20:43.474Z,58.90
2019-02-20T01:21:43.478Z,71.30
2019-02-20T01:22:43.469Z,68.40
2019-02-20T01:23:43.431Z,72.90
2019-02-20T01:24:43.423Z,67.10
2019-02-20T01:25:43.411Z,54.30
2019-02-20T01:26:43.403Z,57.10
2019-02-20T01:27:43.489Z,60.00
2019-02-20T01:28:43.381Z,51.90
2019-02-20T01:29:43.366Z,52.60
2019-02-20T01:30:43.359Z,56.30
2019-02-20T01:31:43.346Z,55.40
2019-02-20T01:32:43.341Z,55.60
2019-02-20T01:33:43.339Z,51.80
2019-02-20T01:34:43.311Z,62.80
2019-02-20T01:35:43.298Z,63.90
2019-02-20T01:36:43.287Z,62.00
2019-02-20T01:37:43.277Z,60.90
2019-02-20T01:38:43.288Z,59.90
2019-02-20T01:39:43.261Z,61.00
2019-02-20T01:40:43.274Z,54.40
2019-02-20T01:41:43.232Z,59.80
2019-02-20T01:42:43.239Z,57.30
2019-02-20T01:43:43.223Z,56.20
2019-02-20T01:44:43.215Z,64.70
2019-02-20T01:45:43.195Z,57.10
2019-02-20T01:46:43.178Z,59.60
2019-02-20T01:47:43.178Z,55.30
2019-02-20T01:48:43.219Z,63.10
2019-02-20T01:49:43.152Z,55.50
2019-02-20T01:50:43.135Z,60.80
2019-02-20T01:51:44.966Z,58.90
2019-02-20T01:52:43.120Z,70.00
2019-02-20T01:53:43.128Z,61.90
2019-02-20T01:54:43.097Z,59.10
2019-02-20T01:55:43.217Z,61.80
2019-02-20T01:56:43.083Z,65.80
2019-02-20T01:57:43.068Z,58.40
2019-02-20T01:58:43.078Z,63.30
2019-02-20T01:59:43.052Z,70.50
2019-02-20T02:00:43.036Z,69.20
2019-02-20T02:01:43.028Z,68.10
2019-02-20T02:02:43.031Z,64.80
2019-02-20T02:03:43.022Z,71.50
2019-02-20T02:04:42.986Z,56.20
2019-02-20T02:05:42.978Z,75.40
2019-02-20T02:06:42.983Z,78.60
2019-02-20T02:07:42.951Z,82.10
2019-02-20T02:08:42.969Z,71.90
2019-02-20T02:09:42.948Z,74.90
2019-02-20T02:10:42.925Z,77.10
2019-02-20T02:11:43.002Z,75.10
2019-02-20T02:12:42.900Z,66.30
2019-02-20T02:13:42.963Z,84.00
2019-02-20T02:14:42.884Z,72.70
2019-02-20T02:15:42.919Z,73.80
2019-02-20T02:16:42.954Z,72.70
2019-02-20T02:17:43.182Z,66.40
2019-02-20T02:18:42.858Z,71.50
2019-02-20T02:19:42.884Z,71.00
2019-02-20T02:20:42.807Z,71.80
2019-02-20T02:21:42.800Z,74.10
2019-02-20T02:22:42.784Z,68.30
2019-02-20T02:23:42.803Z,74.10
2019-02-20T02:24:42.776Z,81.80
2019-02-20T02:25:42.778Z,71.20
2019-02-20T02:26:42.758Z,74.50
2019-02-20T02:27:42.752Z,65.60
2019-02-20T02:28:42.749Z,71.20
2019-02-20T02:29:42.713Z,81.00
2019-02-20T02:30:42.698Z,71.00
2019-02-20T02:31:42.691Z,64.30
2019-02-20T02:32:42.686Z,73.10
2019-02-20T02:33:42.709Z,66.50
2019-02-20T02:34:42.663Z,66.80
2019-02-20T02:35:42.688Z,65.50
2019-02-20T02:36:42.632Z,62.70
2019-02-20T02:37:42.623Z,66.20
2019-02-20T02:38:42.621Z,66.80
2019-02-20T02:39:42.604Z,61.80
2019-02-20T02:40:42.597Z,62.70
2019-02-20T02:41:44.772Z,74.30
2019-02-20T02:42:42.588Z,78.20
2019-02-20T02:43:42.583Z,80.60
2019-02-20T02:44:42.592Z,75.70
2019-02-20T02:45:42.551Z,69.50
2019-02-20T02:46:42.528Z,73.40
2019-02-20T02:47:42.516Z,71.10
2019-02-20T02:48:42.515Z,77.50
2019-02-20T02:49:42.506Z,67.30
2019-02-20T02:50:42.502Z,68.60
2019-02-20T02:51:42.536Z,57.70
2019-02-20T02:52:42.514Z,65.70
2019-02-20T02:53:42.447Z,62.40
2019-02-20T02:54:42.470Z,65.20
2019-02-20T02:55:42.473Z,72.00
2019-02-20T02:56:42.415Z,68.40
2019-02-20T02:57:42.413Z,69.90
2019-02-20T02:58:42.478Z,72.10
2019-02-20T02:59:42.418Z,64.10
2019-02-20T03:00:42.399Z,92.50
2019-02-20T03:01:42.358Z,73.70
2019-02-20T03:02:42.374Z,81.70
2019-02-20T03:03:42.341Z,81.70
2019-02-20T03:04:42.334Z,82.90
2019-02-20T03:05:42.334Z,70.70
2019-02-20T03:06:42.312Z,66.40
2019-02-20T03:07:42.310Z,65.50
2019-02-20T03:08:42.284Z,72.40
2019-02-20T03:09:42.328Z,75.80
2019-02-20T03:10:42.310Z,63.40
2019-02-20T03:11:42.368Z,76.80
2019-02-20T03:12:42.245Z,68.20
2019-02-20T03:13:42.242Z,88.60
2019-02-20T03:14:42.235Z,91.30
2019-02-20T03:15:42.223Z,82.50
2019-02-20T03:16:42.292Z,78.50
2019-02-20T03:17:42.198Z,77.70
2019-02-20T03:18:42.178Z,61.60
2019-02-20T03:19:42.161Z,71.10
2019-02-20T03:20:42.212Z,73.50
2019-02-20T03:21:42.211Z,67.40
2019-02-20T03:22:42.146Z,76.70
2019-02-20T03:23:42.124Z,74.10
2019-02-20T03:24:42.114Z,69.70
2019-02-20T03:25:42.137Z,60.60
2019-02-20T03:26:42.089Z,63.10
2019-02-20T03:27:42.079Z,68.00
2019-02-20T03:28:42.075Z,65.60
2019-02-20T03:29:42.060Z,72.10
2019-02-20T03:30:42.072Z,65.10
2019-02-20T03:31:42.077Z,66.00
2019-02-20T03:32:42.046Z,68.30
2019-02-20T03:33:42.045Z,56.70
2019-02-20T03:34:42.020Z,58.90
2019-02-20T03:35:42.032Z,64.70
2019-02-20T03:36:41.996Z,69.20
2019-02-20T03:37:41.983Z,71.90
2019-02-20T03:38:42.000Z,79.40
2019-02-20T03:39:41.962Z,72.90
2019-02-20T03:40:41.985Z,85.70
2019-02-20T03:41:42.002Z,63.80
2019-02-20T03:42:41.915Z,69.30
2019-02-20T03:43:41.901Z,75.30
2019-02-20T03:44:41.914Z,80.30
2019-02-20T03:45:41.880Z,85.00
2019-02-20T03:46:41.921Z,82.40
2019-02-20T03:47:41.861Z,106.00
2019-02-20T03:48:41.851Z,70.20
2019-02-20T03:49:41.866Z,79.30
2019-02-20T03:50:41.865Z,74.20
2019-02-20T03:51:41.923Z,81.90
2019-02-20T03:52:41.804Z,71.10
2019-02-20T03:53:51.152Z,77.00
2019-02-20T03:54:42.821Z,64.80
2019-02-20T03:55:41.780Z,69.50
2019-02-20T03:56:41.776Z,71.60
2019-02-20T03:57:41.775Z,71.20
2019-02-20T03:58:41.826Z,68.60
2019-02-20T03:59:41.754Z,71.80
2019-02-20T04:00:41.742Z,86.20
2019-02-20T04:01:41.748Z,64.60
2019-02-20T04:02:41.695Z,65.20
2019-02-20T04:03:41.690Z,67.80
2019-02-20T04:04:41.682Z,69.20
2019-02-20T04:05:41.670Z,67.60
2019-02-20T04:06:41.721Z,70.80
2019-02-20T04:07:41.685Z,70.70
2019-02-20T04:08:41.636Z,65.60
2019-02-20T04:09:41.623Z,69.30
2019-02-20T04:10:41.613Z,66.10
2019-02-20T04:11:41.638Z,60.80
2019-02-20T04:12:41.599Z,66.90
2019-02-20T04:13:41.625Z,70.70
2019-02-20T04:14:41.599Z,70.20
2019-02-20T04:15:41.557Z,61.50
2019-02-20T04:16:41.615Z,67.00
2019-02-20T04:17:41.560Z,63.00
2019-02-20T04:18:41.553Z,66.20
2019-02-20T04:19:41.523Z,62.90
2019-02-20T04:20:41.501Z,66.20
2019-02-20T04:21:41.586Z,69.10
2019-02-20T04:22:41.493Z,75.20
2019-02-20T04:23:41.471Z,64.40
2019-02-20T04:24:41.493Z,64.90
2019-02-20T04:25:41.460Z,74.30
2019-02-20T04:26:41.546Z,76.90
2019-02-20T04:27:41.454Z,76.10
2019-02-20T04:28:41.490Z,82.50
2019-02-20T04:29:41.426Z,66.10
2019-02-20T04:30:41.406Z,65.00
2019-02-20T04:31:41.426Z,62.20
2019-02-20T04:32:41.387Z,70.00
2019-02-20T04:33:41.368Z,67.70
2019-02-20T04:34:41.358Z,71.80
2019-02-20T04:35:41.343Z,64.40
2019-02-20T04:36:41.358Z,61.90
2019-02-20T04:37:41.361Z,68.00
2019-02-20T04:38:41.326Z,65.10
2019-02-20T04:39:41.307Z,70.10
2019-02-20T04:40:41.302Z,70.00
2019-02-20T04:41:41.289Z,78.00
2019-02-20T04:42:41.330Z,77.90
2019-02-20T04:43:41.254Z,72.30
2019-02-20T04:44:41.250Z,85.00
2019-02-20T04:45:41.233Z,76.50
2019-02-20T04:46:41.233Z,74.00
2019-02-20T04:47:41.241Z,68.50
2019-02-20T04:48:41.218Z,68.70
2019-02-20T04:49:41.245Z,65.00
2019-02-20T04:50:41.179Z,66.70
2019-02-20T04:51:41.170Z,75.80
2019-02-20T04:52:41.192Z,78.90
2019-02-20T04:53:41.146Z,71.70
2019-02-20T04:54:41.206Z,75.30
2019-02-20T04:55:41.139Z,65.30
2019-02-20T04:56:41.117Z,86.80
2019-02-20T04:57:41.110Z,70.60
2019-02-20T04:58:41.124Z,65.30
2019-02-20T04:59:41.108Z,64.90
2019-02-20T05:00:41.072Z,71.50
2019-02-20T05:01:41.066Z,62.60
2019-02-20T05:02:41.064Z,71.70
2019-02-20T05:03:41.043Z,75.10
2019-02-20T05:04:41.033Z,70.20
2019-02-20T05:05:41.045Z,69.40
2019-02-20T05:06:41.013Z,79.60
2019-02-20T05:07:41.009Z,80.90
2019-02-20T05:08:40.993Z,73.00
2019-02-20T05:09:41.048Z,75.70
2019-02-20T05:10:40.963Z,68.70
2019-02-20T05:11:40.957Z,63.60
2019-02-20T05:12:40.967Z,64.00
2019-02-20T05:13:40.949Z,72.00
2019-02-20T05:14:40.947Z,69.80
2019-02-20T05:15:40.926Z,63.80
2019-02-20T05:16:40.933Z,73.10
2019-02-20T05:17:40.950Z,66.10
2019-02-20T05:18:40.881Z,65.30
2019-02-20T05:19:40.871Z,67.40
2019-02-20T05:20:40.855Z,69.50
2019-02-20T05:21:40.859Z,67.30
2019-02-20T05:22:40.845Z,66.30
2019-02-20T05:23:42.753Z,71.00
2019-02-20T05:24:40.814Z,66.30
2019-02-20T05:25:40.907Z,69.80
2019-02-20T05:26:40.792Z,73.40
2019-02-20T05:27:40.816Z,66.10
2019-02-20T05:28:40.785Z,70.50
2019-02-20T05:29:40.795Z,77.80
2019-02-20T05:30:40.772Z,75.00
2019-02-20T05:31:40.747Z,83.80
2019-02-20T05:32:40.864Z,78.70
2019-02-20T05:33:40.737Z,75.30
2019-02-20T05:34:40.709Z,73.70
2019-02-20T05:35:40.699Z,62.60
2019-02-20T05:36:40.682Z,74.10
2019-02-20T05:37:40.689Z,83.80
2019-02-20T05:38:40.694Z,73.60
2019-02-20T05:39:40.673Z,80.60
2019-02-20T05:40:40.658Z,79.10
2019-02-20T05:41:40.625Z,96.70
2019-02-20T05:42:40.638Z,96.60
2019-02-20T05:43:40.604Z,108.60
2019-02-20T05:44:40.606Z,192.40
2019-02-20T05:45:40.584Z,201.00
2019-02-20T05:46:40.576Z,232.00
2019-02-20T05:47:40.577Z,238.60
2019-02-20T05:48:40.598Z,404.90
2019-02-20T05:49:40.551Z,569.30
2019-02-20T05:50:40.531Z,478.60
2019-02-20T05:51:40.520Z,531.20
2019-02-20T05:52:40.560Z,422.70
2019-02-20T05:53:40.501Z,646.60
2019-02-20T05:54:40.498Z,810.60
2019-02-20T05:55:40.494Z,599.20
2019-02-20T05:56:40.508Z,523.20
2019-02-20T05:57:40.470Z,407.90
2019-02-20T05:58:40.468Z,672.30
2019-02-20T05:59:40.443Z,801.40
2019-02-20T06:00:40.422Z,851.10
2019-02-20T06:01:40.497Z,509.40
2019-02-20T06:02:40.405Z,548.60
2019-02-20T06:03:40.396Z,777.20
2019-02-20T06:04:40.383Z,583.50
2019-02-20T06:05:40.378Z,769.40
2019-02-20T06:06:40.380Z,696.30
2019-02-20T06:07:40.360Z,560.90
2019-02-20T06:08:40.379Z,581.30
2019-02-20T06:09:40.321Z,771.90
2019-02-20T06:10:40.313Z,497.00
2019-02-20T06:11:40.300Z,557.60
2019-02-20T06:12:40.306Z,621.00
2019-02-20T06:13:40.314Z,688.60
2019-02-20T06:14:40.268Z,742.90
2019-02-20T06:15:40.260Z,717.10
2019-02-20T06:16:40.246Z,561.90
2019-02-20T06:17:40.259Z,590.40
2019-02-20T06:18:40.239Z,642.10
2019-02-20T06:19:40.257Z,508.40
2019-02-20T06:20:40.225Z,547.90
2019-02-20T06:21:40.190Z,643.80
2019-02-20T06:22:40.190Z,697.20
2019-02-20T06:23:40.184Z,582.50
2019-02-20T06:24:44.060Z,823.40
2019-02-20T06:25:40.153Z,414.70
2019-02-20T06:26:40.136Z,765.60
2019-02-20T06:27:40.127Z,585.00
2019-02-20T06:28:40.133Z,635.70
2019-02-20T06:29:40.113Z,739.30
2019-02-20T06:30:40.099Z,646.30
2019-02-20T06:31:40.094Z,853.80
2019-02-20T06:32:40.069Z,601.70
2019-02-20T06:33:40.074Z,694.30
2019-02-20T06:34:40.048Z,457.90
2019-02-20T06:35:40.047Z,747.70
2019-02-20T06:36:40.028Z,903.10
2019-02-20T06:37:40.032Z,676.10
2019-02-20T06:38:40.017Z,778.20
2019-02-20T06:39:39.993Z,953.60
2019-02-20T06:40:39.990Z,885.60
2019-02-20T06:41:39.976Z,901.30
2019-02-20T06:42:39.966Z,858.90
2019-02-20T06:43:39.960Z,958.40
2019-02-20T06:44:39.962Z,877.30
2019-02-20T06:45:39.928Z,873.20
2019-02-20T06:46:39.926Z,721.60
2019-02-20T06:47:39.926Z,956.70
2019-02-20T06:48:39.930Z,852.00
2019-02-20T06:49:39.885Z,864.30
2019-02-20T06:50:39.885Z,781.70
2019-02-20T06:51:39.890Z,819.30
2019-02-20T06:52:39.860Z,956.40
2019-02-20T06:53:39.863Z,716.90
2019-02-20T06:54:39.828Z,822.50
2019-02-20T06:55:39.827Z,685.40
2019-02-20T06:56:39.834Z,585.30
2019-02-20T06:57:39.795Z,736.90
2019-02-20T06:58:39.846Z,718.60
2019-02-20T06:59:39.779Z,716.90
2019-02-20T07:00:39.768Z,714.30
2019-02-20T07:01:39.752Z,660.80
2019-02-20T07:02:39.774Z,707.00
2019-02-20T07:03:39.740Z,719.80
2019-02-20T07:04:39.797Z,713.30
2019-02-20T07:05:39.709Z,586.40
2019-02-20T07:06:39.706Z,543.30
2019-02-20T07:07:39.740Z,498.40
2019-02-20T07:08:39.696Z,473.70
2019-02-20T07:09:39.713Z,591.10
2019-02-20T07:10:39.659Z,604.60
2019-02-20T07:11:39.696Z,510.70
2019-02-20T07:12:39.648Z,362.80
2019-02-20T07:13:39.644Z,469.90
2019-02-20T07:14:39.626Z,559.80
2019-02-20T07:15:39.601Z,595.90
2019-02-20T07:16:39.596Z,615.00
2019-02-20T07:17:39.587Z,412.80
2019-02-20T07:18:39.576Z,303.30
2019-02-20T07:19:39.581Z,423.90
2019-02-20T07:20:39.556Z,471.80
2019-02-20T07:21:39.534Z,381.10
2019-02-20T07:22:39.525Z,433.60
2019-02-20T07:23:39.511Z,481.50
2019-02-20T07:24:39.507Z,420.70
2019-02-20T07:25:39.491Z,597.90
2019-02-20T07:26:39.501Z,520.60
2019-02-20T07:27:39.647Z,515.50
2019-02-20T07:28:39.488Z,540.00
2019-02-20T07:29:39.471Z,570.30
2019-02-20T07:30:39.434Z,425.50
2019-02-20T07:31:39.431Z,477.60
2019-02-20T07:32:39.424Z,535.20
2019-02-20T07:33:39.409Z,364.40
2019-02-20T07:34:39.474Z,566.80
2019-02-20T07:35:39.427Z,495.50
2019-02-20T07:36:39.413Z,475.40
2019-02-20T07:37:39.362Z,370.40
2019-02-20T07:38:39.348Z,372.30
2019-02-20T07:39:39.337Z,271.00
2019-02-20T07:40:39.334Z,480.30
2019-02-20T07:41:39.326Z,619.40
2019-02-20T07:42:39.310Z,471.90
2019-02-20T07:43:39.302Z,288.60
2019-02-20T07:44:39.299Z,332.80
2019-02-20T07:45:39.315Z,289.30
2019-02-20T07:46:39.302Z,318.10
2019-02-20T07:47:39.279Z,278.00
2019-02-20T07:48:39.241Z,219.60
2019-02-20T07:49:39.230Z,218.70
2019-02-20T07:50:39.221Z,304.70
2019-02-20T07:51:39.210Z,254.60
2019-02-20T07:52:39.197Z,427.30
2019-02-20T07:53:39.190Z,329.80
2019-02-20T07:54:39.194Z,276.40
2019-02-20T07:55:39.165Z,239.80
2019-02-20T07:56:39.153Z,261.40
2019-02-20T07:57:39.143Z,312.50
2019-02-20T07:58:39.141Z,390.20
2019-02-20T07:59:39.122Z,446.00
2019-02-20T08:00:39.120Z,316.90
2019-02-20T08:01:39.100Z,359.60
2019-02-20T08:02:39.084Z,447.60
2019-02-20T08:03:39.102Z,456.20
2019-02-20T08:04:39.063Z,472.30
2019-02-20T08:05:39.070Z,346.60
2019-02-20T08:06:39.049Z,467.50
2019-02-20T08:07:39.037Z,453.50
2019-02-20T08:08:39.019Z,524.10
2019-02-20T08:09:39.018Z,430.80
2019-02-20T08:10:39.122Z,326.00
2019-02-20T08:11:39.006Z,508.30
2019-02-20T08:12:38.979Z,592.70
2019-02-20T08:13:39.597Z,233.60
2019-02-20T08:14:38.961Z,351.70
2019-02-20T08:15:38.963Z,484.40
2019-02-20T08:16:38.941Z,459.80
2019-02-20T08:17:38.923Z,548.70
2019-02-20T08:18:38.931Z,667.00
2019-02-20T08:19:38.906Z,449.70
2019-02-20T08:20:38.912Z,425.70
2019-02-20T08:21:38.884Z,373.20
2019-02-20T08:22:38.868Z,374.90
2019-02-20T08:23:38.877Z,486.80
2019-02-20T08:24:38.854Z,515.60
2019-02-20T08:25:38.867Z,452.90
2019-02-20T08:26:38.833Z,259.50
2019-02-20T08:27:38.819Z,545.60
2019-02-20T08:28:38.834Z,459.90
2019-02-20T08:29:38.801Z,414.60
2019-02-20T08:30:38.780Z,471.00
2019-02-20T08:31:38.775Z,385.90
2019-02-20T08:32:38.761Z,549.60
2019-02-20T08:33:38.757Z,533.10
2019-02-20T08:34:38.800Z,405.90
2019-02-20T08:35:38.727Z,455.00
2019-02-20T08:36:38.734Z,489.70
2019-02-20T08:37:38.718Z,426.30
2019-02-20T08:38:38.696Z,506.20
2019-02-20T08:39:38.688Z,417.90
2019-02-20T08:40:38.688Z,516.80
2019-02-20T08:41:38.672Z,379.40
2019-02-20T08:42:40.586Z,400.50
2019-02-20T08:43:38.649Z,366.50
2019-02-20T08:44:38.633Z,477.90
2019-02-20T08:45:38.627Z,429.60
2019-02-20T08:46:38.632Z,275.20
2019-02-20T08:47:38.599Z,278.40
2019-02-20T08:48:38.591Z,414.70
2019-02-20T08:49:38.598Z,590.70
2019-02-20T08:50:38.572Z,357.70
2019-02-20T08:51:38.569Z,339.60
2019-02-20T08:52:38.552Z,202.90
2019-02-20T08:53:38.543Z,460.80
2019-02-20T08:54:38.527Z,521.40
2019-02-20T08:55:38.511Z,359.00
2019-02-20T08:56:38.502Z,542.20
2019-02-20T08:57:38.490Z,390.40
2019-02-20T08:58:38.480Z,262.50
2019-02-20T08:59:38.468Z,471.90
2019-02-20T09:00:38.476Z,289.40
2019-02-20T09:01:38.538Z,321.00
2019-02-20T09:02:38.435Z,420.90
2019-02-20T09:03:38.434Z,401.80
2019-02-20T09:04:38.413Z,465.10
2019-02-20T09:05:38.402Z,419.40
2019-02-20T09:06:38.393Z,381.50
2019-02-20T09:07:38.385Z,463.20
2019-02-20T09:08:38.399Z,283.10
2019-02-20T09:09:38.382Z,345.20
2019-02-20T09:10:38.363Z,289.40
2019-02-20T09:11:38.358Z,315.30
2019-02-20T09:12:38.341Z,263.50
2019-02-20T09:13:38.318Z,172.00
2019-02-20T09:14:38.305Z,209.60
2019-02-20T09:15:38.296Z,227.60
2019-02-20T09:16:38.294Z,345.50
2019-02-20T09:17:38.278Z,589.10
2019-02-20T09:18:38.262Z,334.10
2019-02-20T09:19:38.254Z,285.50
2019-02-20T09:20:38.240Z,286.50
2019-02-20T09:21:38.231Z,290.60
2019-02-20T09:22:39.560Z,301.40
2019-02-20T09:23:38.212Z,504.70
2019-02-20T09:24:38.198Z,250.60
2019-02-20T09:25:41.662Z,279.50
2019-02-20T09:26:38.189Z,178.50
2019-02-20T09:27:38.171Z,315.60
2019-02-20T09:28:38.158Z,194.60
2019-02-20T09:29:38.159Z,217.00
2019-02-20T09:30:38.135Z,262.80
2019-02-20T09:31:38.127Z,267.40
2019-02-20T09:32:38.138Z,376.70
2019-02-20T09:33:38.104Z,232.30
2019-02-20T09:34:38.095Z,364.90
2019-02-20T09:35:38.077Z,301.20
2019-02-20T09:36:38.067Z,165.20
2019-02-20T09:37:38.058Z,149.20
2019-02-20T09:38:38.058Z,347.80
2019-02-20T09:39:38.034Z,110.80
2019-02-20T09:40:38.023Z,174.50
2019-02-20T09:41:38.016Z,248.80
2019-02-20T09:42:38.011Z,183.20
2019-02-20T09:43:37.990Z,157.50
2019-02-20T09:44:38.002Z,144.70
2019-02-20T09:45:42.176Z,171.60
2019-02-20T09:46:38.963Z,116.20
2019-02-20T09:47:37.961Z,232.50
2019-02-20T09:48:37.941Z,161.00
2019-02-20T09:49:37.933Z,222.70
2019-02-20T09:50:37.922Z,155.70
2019-02-20T09:51:37.905Z,104.10
2019-02-20T09:52:37.905Z,116.20
2019-02-20T09:53:37.882Z,111.70
2019-02-20T09:54:37.870Z,116.90
2019-02-20T09:55:37.860Z,126.90
2019-02-20T09:56:37.853Z,105.10
2019-02-20T09:57:37.871Z,106.80
2019-02-20T09:58:37.834Z,88.80
2019-02-20T09:59:37.836Z,163.90
2019-02-20T10:00:37.804Z,104.30
2019-02-20T10:01:37.798Z,71.40
2019-02-20T10:02:37.789Z,70.50
2019-02-20T10:03:37.773Z,65.00
2019-02-20T10:04:37.765Z,69.00
2019-02-20T10:05:37.776Z,59.80
2019-02-20T10:06:37.758Z,84.40
2019-02-20T10:07:37.743Z,68.30
2019-02-20T10:08:37.729Z,71.00
2019-02-20T10:09:37.709Z,80.10
2019-02-20T10:10:37.699Z,75.30
2019-02-20T10:11:37.692Z,99.50
2019-02-20T10:12:37.693Z,112.50
2019-02-20T10:13:37.668Z,70.30
2019-02-20T10:14:37.662Z,109.40
2019-02-20T10:15:37.648Z,74.40
2019-02-20T10:16:37.640Z,85.90
2019-02-20T10:17:37.624Z,82.80
2019-02-20T10:18:37.632Z,92.40
2019-02-20T10:19:37.604Z,70.60
2019-02-20T10:20:37.609Z,67.90
2019-02-20T10:21:37.584Z,61.10
2019-02-20T10:22:37.573Z,64.10
2019-02-20T10:23:37.564Z,67.10
2019-02-20T10:24:37.552Z,61.10
2019-02-20T10:25:37.549Z,75.70
2019-02-20T10:26:37.524Z,63.20
2019-02-20T10:27:37.536Z,67.00
2019-02-20T10:28:37.529Z,68.30
2019-02-20T10:29:37.497Z,66.80
2019-02-20T10:30:37.487Z,80.20
2019-02-20T10:31:37.474Z,75.00
2019-02-20T10:32:37.465Z,71.40
2019-02-20T10:33:37.463Z,67.60
2019-02-20T10:34:37.439Z,79.50
2019-02-20T10:35:37.440Z,71.90
2019-02-20T10:36:37.419Z,71.70
2019-02-20T10:37:37.409Z,69.70
2019-02-20T10:38:37.415Z,63.30
2019-02-20T10:39:37.383Z,65.50
2019-02-20T10:40:37.373Z,76.20
2019-02-20T10:41:37.374Z,70.60
2019-02-20T10:42:37.368Z,64.90
2019-02-20T10:43:37.414Z,66.40
2019-02-20T10:44:37.328Z,67.50
2019-02-20T10:45:37.321Z,75.60
2019-02-20T10:46:37.308Z,66.40
2019-02-20T10:47:37.298Z,66.20
2019-02-20T10:48:37.299Z,59.50
2019-02-20T10:49:37.319Z,67.00
2019-02-20T10:50:37.284Z,73.70
2019-02-20T10:51:37.264Z,64.50
2019-02-20T10:52:37.252Z,62.70
2019-02-20T10:53:37.233Z,69.30
2019-02-20T10:54:37.224Z,65.00
2019-02-20T10:55:37.294Z,61.30
2019-02-20T10:56:37.206Z,64.80
2019-02-20T10:57:37.195Z,63.20
2019-02-20T10:58:37.218Z,68.60
2019-02-20T10:59:37.171Z,63.90
2019-02-20T11:00:37.164Z,66.30
2019-02-20T11:01:37.147Z,72.50
2019-02-20T11:02:37.135Z,64.00
2019-02-20T11:03:37.131Z,61.50
2019-02-20T11:04:37.123Z,67.70
2019-02-20T11:05:37.107Z,65.90
2019-02-20T11:06:37.151Z,63.30
2019-02-20T11:07:37.096Z,58.60
2019-02-20T11:08:37.069Z,57.60
2019-02-20T11:09:37.065Z,63.70
2019-02-20T11:10:37.076Z,66.10
2019-02-20T11:11:37.067Z,61.80
2019-02-20T11:12:37.023Z,62.00
2019-02-20T11:13:37.014Z,64.20
2019-02-20T11:14:37.814Z,64.40
2019-02-20T11:15:37.009Z,59.90
2019-02-20T11:16:36.990Z,64.50
2019-02-20T11:17:37.498Z,61.90
2019-02-20T11:18:36.960Z,58.40
2019-02-20T11:19:36.955Z,60.80
2019-02-20T11:20:36.935Z,61.60
2019-02-20T11:21:36.930Z,58.00
2019-02-20T11:22:36.927Z,63.90
2019-02-20T11:23:36.905Z,55.10
2019-02-20T11:24:36.902Z,57.90
2019-02-20T11:25:36.885Z,60.90
2019-02-20T11:26:46.049Z,68.60
2019-02-20T11:27:39.475Z,57.40
2019-02-20T11:28:36.848Z,52.90
2019-02-20T11:29:36.854Z,58.40
2019-02-20T11:30:36.849Z,54.50
2019-02-20T11:31:36.815Z,54.10
2019-02-20T11:32:36.801Z,54.10
2019-02-20T11:33:36.790Z,62.90
2019-02-20T11:34:36.812Z,54.90
2019-02-20T11:35:36.771Z,48.30
2019-02-20T11:36:36.756Z,45.40
2019-02-20T11:37:36.747Z,45.40
2019-02-20T11:38:36.737Z,44.50
2019-02-20T11:39:37.964Z,47.10
2019-02-20T11:40:36.715Z,46.90
2019-02-20T11:41:36.706Z,44.90
2019-02-20T11:42:36.692Z,42.00
2019-02-20T11:43:36.683Z,51.20
2019-02-20T11:44:36.671Z,48.50
2019-02-20T11:45:36.666Z,50.70
2019-02-20T11:46:36.647Z,45.80
2019-02-20T11:47:36.637Z,44.70
2019-02-20T11:48:36.631Z,43.50
2019-02-20T11:49:36.617Z,47.50
2019-02-20T11:50:36.610Z,49.00
2019-02-20T11:51:36.594Z,45.50
2019-02-20T11:52:38.594Z,53.10
2019-02-20T11:53:37.425Z,46.80
2019-02-20T11:54:36.588Z,49.90
2019-02-20T11:55:36.563Z,48.80
2019-02-20T11:56:36.547Z,53.10
2019-02-20T11:57:36.543Z,49.00
2019-02-20T11:58:36.572Z,47.90
2019-02-20T11:59:36.504Z,46.70
2019-02-20T12:00:36.535Z,44.60
2019-02-20T12:01:36.483Z,48.20
2019-02-20T12:02:37.622Z,44.60
2019-02-20T12:03:36.513Z,43.90
2019-02-20T12:04:36.483Z,50.40
2019-02-20T12:05:36.458Z,53.70
2019-02-20T12:06:36.432Z,47.30
2019-02-20T12:07:36.417Z,52.50
2019-02-20T12:08:36.412Z,49.50
2019-02-20T12:09:36.437Z,49.50
2019-02-20T12:10:36.717Z,47.70
2019-02-20T12:11:36.377Z,49.00
2019-02-20T12:12:36.365Z,47.70
2019-02-20T12:13:36.368Z,52.00
2019-02-20T12:14:36.342Z,47.10
2019-02-20T12:15:36.356Z,52.70
2019-02-20T12:16:36.359Z,52.20
2019-02-20T12:17:36.338Z,49.70
2019-02-20T12:18:36.300Z,47.60
2019-02-20T12:19:36.288Z,46.90
2019-02-20T12:20:36.296Z,50.40
2019-02-20T12:21:36.272Z,50.10
2019-02-20T12:22:36.283Z,52.60
2019-02-20T12:23:36.852Z,49.50
2019-02-20T12:24:36.245Z,54.20
2019-02-20T12:25:36.258Z,48.40
2019-02-20T12:26:36.285Z,48.00
2019-02-20T12:27:36.200Z,49.50
2019-02-20T12:28:36.210Z,45.90
2019-02-20T12:29:36.201Z,54.10
2019-02-20T12:30:38.012Z,46.60
2019-02-20T12:31:36.225Z,49.80
2019-02-20T12:32:36.147Z,51.50
2019-02-20T12:33:36.146Z,55.90
2019-02-20T12:34:36.138Z,53.50
2019-02-20T12:35:36.238Z,54.10
2019-02-20T12:36:36.159Z,50.00
2019-02-20T12:37:36.134Z,50.60
2019-02-20T12:38:37.209Z,55.10
2019-02-20T12:39:36.080Z,56.60
2019-02-20T12:40:36.089Z,54.80
2019-02-20T12:41:36.075Z,48.20
2019-02-20T12:42:36.043Z,55.10
2019-02-20T12:43:36.047Z,51.30
2019-02-20T12:44:36.014Z,49.50